Yale, Iowa
Current Conditions -  °F | °C
As of 4:15 PM on Monday 26 Jan 2015 (Local Time) from KCIN Reporting Station
Clear Clear  
Wind Chill:   Ceiling: Unl
Heat Index:   Visibility: 10mi
Dew Point:   Wind: 20mph
Humidity: 66%   Direction: 310°NW
Pressure: 29.89"   Gusts: 32mph
Location:  41.78°N, 94.36°W
Report Text: KCIN 262215Z AUTO 31017G28KT 10SM CLR 09/03 A2989 RMK AO2
Loading
Personal Weather Stations






























Interactive Weather Map New forecast layout! Learn more

10-Day Weather Forecast

Advertisements
Track Severe Weather on mobile